Time,TemperatureF,DewpointF,PressureIn,WindDirection,WindDirectionDegrees,WindSpeedMPH,WindSpeedGustMPH,Humidity,HourlyPrecipIn,Conditions,Clouds,dailyrainin,SolarRadiationWatts/m^2,SoftwareType,DateUTC
2013-04-02 00:02:00,50.0,26.0,-100.00,NW,315,7.0,14.0,39,0.00,,,0.00,0.000000,,2013-04-02 07:02:00,
2013-04-02 00:12:00,50.0,26.0,-100.00,NW,315,7.0,14.0,39,0.00,,,0.00,0.000000,,2013-04-02 07:12:00,
2013-04-02 00:22:00,50.0,26.0,-100.00,NW,315,7.0,14.0,39,0.00,,,0.00,0.000000,,2013-04-02 07:22:00,
2013-04-02 00:52:00,51.0,28.0,-100.00,NW,311,10.0,16.0,40,0.00,,,0.00,0.000000,,2013-04-02 07:52:00,
2013-04-02 01:02:00,51.0,28.0,-100.00,NW,311,10.0,16.0,40,0.00,,,0.00,0.000000,,2013-04-02 08:02:00,
2013-04-02 01:12:00,51.0,28.0,-100.00,NW,311,10.0,16.0,40,0.00,,,0.00,0.000000,,2013-04-02 08:12:00,
2013-04-02 01:22:00,51.0,28.0,-100.00,NW,311,10.0,16.0,40,0.00,,,0.00,0.000000,,2013-04-02 08:22:00,
2013-04-02 01:52:00,51.0,27.0,-100.00,NNW,331,8.0,16.0,39,0.00,,,0.00,0.000000,,2013-04-02 08:52:00,
2013-04-02 02:02:00,51.0,27.0,-100.00,NNW,331,8.0,16.0,39,0.00,,,0.00,0.000000,,2013-04-02 09:02:00,
2013-04-02 02:12:00,51.0,27.0,-100.00,NNW,331,8.0,16.0,39,0.00,,,0.00,0.000000,,2013-04-02 09:12:00,
2013-04-02 02:22:00,51.0,27.0,-100.00,NNW,331,8.0,16.0,39,0.00,,,0.00,0.000000,,2013-04-02 09:22:00,
2013-04-02 02:52:00,51.0,26.0,-100.00,NW,317,8.0,12.0,38,0.00,,,0.00,0.000000,,2013-04-02 09:52:00,
2013-04-02 03:03:00,51.0,26.0,-100.00,NW,317,8.0,12.0,38,0.00,,,0.00,0.000000,,2013-04-02 10:03:00,
2013-04-02 03:13:00,51.0,26.0,-100.00,NW,317,8.0,12.0,38,0.00,,,0.00,0.000000,,2013-04-02 10:13:00,
2013-04-02 03:23:00,51.0,26.0,-100.00,NW,317,8.0,12.0,38,0.00,,,0.00,0.000000,,2013-04-02 10:23:00,
2013-04-02 03:52:00,49.0,25.0,-100.00,NW,321,5.0,11.0,38,0.00,,,0.00,0.000000,,2013-04-02 10:52:00,
2013-04-02 04:02:00,49.0,25.0,-100.00,NW,321,5.0,11.0,38,0.00,,,0.00,0.000000,,2013-04-02 11:02:00,
2013-04-02 04:12:00,49.0,25.0,-100.00,NW,321,5.0,11.0,38,0.00,,,0.00,0.000000,,2013-04-02 11:12:00,
2013-04-02 04:22:00,49.0,25.0,-100.00,NW,321,5.0,11.0,38,0.00,,,0.00,0.000000,,2013-04-02 11:22:00,
2013-04-02 04:52:00,51.0,24.0,-100.00,WNW,303,8.0,12.0,34,0.00,,,0.00,0.000000,,2013-04-02 11:52:00,
2013-04-02 05:02:00,51.0,24.0,-100.00,WNW,303,8.0,12.0,34,0.00,,,0.00,0.000000,,2013-04-02 12:02:00,
2013-04-02 05:11:00,51.0,24.0,-100.00,WNW,303,8.0,12.0,34,0.00,,,0.00,0.000000,,2013-04-02 12:11:00,
2013-04-02 05:22:00,51.0,24.0,-100.00,WNW,303,8.0,12.0,34,0.00,,,0.00,0.000000,,2013-04-02 12:22:00,
2013-04-02 05:52:00,48.0,25.0,-100.00,NW,311,10.0,14.0,41,0.00,,,0.00,0.000000,,2013-04-02 12:52:00,
2013-04-02 06:01:00,48.0,25.0,-100.00,NW,311,10.0,14.0,41,0.00,,,0.00,0.000000,,2013-04-02 13:01:00,
2013-04-02 06:12:00,48.0,25.0,-100.00,NW,311,10.0,14.0,41,0.00,,,0.00,0.000000,,2013-04-02 13:12:00,
2013-04-02 06:22:00,48.0,25.0,-100.00,NW,311,10.0,14.0,41,0.00,,,0.00,0.000000,,2013-04-02 13:22:00,
2013-04-02 06:52:00,48.0,25.0,-100.00,NW,309,10.0,15.0,40,0.00,,,0.00,0.000000,,2013-04-02 13:52:00,
2013-04-02 07:02:00,48.0,25.0,-100.00,NW,309,10.0,15.0,40,0.00,,,0.00,0.000000,,2013-04-02 14:02:00,
2013-04-02 07:12:00,48.0,25.0,-100.00,NW,309,10.0,15.0,40,0.00,,,0.00,0.000000,,2013-04-02 14:12:00,
2013-04-02 07:22:00,48.0,25.0,-100.00,NW,309,10.0,15.0,40,0.00,,,0.00,0.000000,,2013-04-02 14:22:00,
2013-04-02 07:52:00,50.0,26.0,-100.00,NW,311,10.0,14.0,39,0.00,,,0.00,50.000000,,2013-04-02 14:52:00,
2013-04-02 08:02:00,50.0,26.0,-100.00,NW,311,10.0,14.0,39,0.00,,,0.00,50.000000,,2013-04-02 15:02:00,
2013-04-02 08:11:00,50.0,26.0,-100.00,NW,311,10.0,14.0,39,0.00,,,0.00,50.000000,,2013-04-02 15:11:00,
2013-04-02 08:22:00,50.0,26.0,-100.00,NW,311,10.0,14.0,39,0.00,,,0.00,50.000000,,2013-04-02 15:22:00,
2013-04-02 08:57:00,53.0,26.0,-100.00,NNW,342,9.0,14.0,35,0.00,,,0.00,275.000000,,2013-04-02 15:57:00,
2013-04-02 09:03:00,53.0,26.0,-100.00,NNW,342,9.0,14.0,35,0.00,,,0.00,275.000000,,2013-04-02 16:03:00,
2013-04-02 09:13:00,53.0,26.0,-100.00,NNW,342,9.0,14.0,35,0.00,,,0.00,275.000000,,2013-04-02 16:13:00,
2013-04-02 09:23:00,53.0,26.0,-100.00,NNW,342,9.0,14.0,35,0.00,,,0.00,275.000000,,2013-04-02 16:23:00,
2013-04-02 09:53:00,57.0,25.0,-100.00,NNW,339,12.0,19.0,29,0.00,,,-99.99,536.000000,,2013-04-02 16:53:00,
2013-04-02 10:04:00,57.0,25.0,-100.00,NNW,339,12.0,19.0,29,0.00,,,-99.99,536.000000,,2013-04-02 17:04:00,
2013-04-02 10:12:00,57.0,25.0,-100.00,NNW,339,12.0,19.0,29,0.00,,,-99.99,536.000000,,2013-04-02 17:12:00,
2013-04-02 10:23:00,57.0,25.0,-100.00,NNW,339,12.0,19.0,29,0.00,,,-99.99,536.000000,,2013-04-02 17:23:00,
2013-04-02 11:03:00,58.0,20.0,-100.00,North,349,10.0,16.0,23,0.00,,,0.00,779.000000,,2013-04-02 18:03:00,
2013-04-02 11:12:00,58.0,20.0,-100.00,North,349,10.0,16.0,23,0.00,,,0.00,779.000000,,2013-04-02 18:12:00,
2013-04-02 11:22:00,58.0,20.0,-100.00,North,349,10.0,16.0,23,0.00,,,0.00,779.000000,,2013-04-02 18:22:00,
2013-04-02 11:55:00,63.0,20.0,-100.00,NNW,329,7.0,14.0,19,0.00,,,0.00,970.000000,,2013-04-02 18:55:00,
2013-04-02 12:02:00,63.0,20.0,-100.00,NNW,329,7.0,14.0,19,0.00,,,0.00,970.000000,,2013-04-02 19:02:00,
2013-04-02 12:12:00,63.0,20.0,-100.00,NNW,329,7.0,14.0,19,0.00,,,0.00,970.000000,,2013-04-02 19:12:00,
2013-04-02 12:22:00,63.0,20.0,-100.00,NNW,329,7.0,14.0,19,0.00,,,0.00,970.000000,,2013-04-02 19:22:00,
2013-04-02 12:55:00,66.0,14.0,-100.00,NNW,330,5.0,15.0,13,0.00,,,0.00,1108.000000,,2013-04-02 19:55:00,
2013-04-02 13:12:00,66.0,14.0,-100.00,NNW,330,5.0,15.0,13,0.00,,,0.00,1108.000000,,2013-04-02 20:12:00,
2013-04-02 13:21:00,66.0,14.0,-100.00,NNW,330,5.0,15.0,13,0.00,,,0.00,1108.000000,,2013-04-02 20:21:00,
2013-04-02 13:54:00,68.0,14.0,-100.00,North,350,6.0,16.0,12,0.00,,,0.00,1161.000000,,2013-04-02 20:54:00,
2013-04-02 14:03:00,68.0,14.0,-100.00,North,350,6.0,16.0,12,0.00,,,0.00,1161.000000,,2013-04-02 21:03:00,
2013-04-02 14:55:00,66.0,12.0,-100.00,NNW,347,7.0,21.0,12,0.00,,,0.00,1011.000000,,2013-04-02 21:55:00,
2013-04-02 15:03:00,66.0,12.0,-100.00,NNW,347,7.0,21.0,12,0.00,,,0.00,1011.000000,,2013-04-02 22:03:00,
2013-04-02 15:13:00,66.0,12.0,-100.00,NNW,347,7.0,21.0,12,0.00,,,0.00,1011.000000,,2013-04-02 22:13:00,
2013-04-02 15:23:00,66.0,12.0,-100.00,NNW,347,7.0,21.0,12,0.00,,,0.00,1011.000000,,2013-04-02 22:23:00,
2013-04-02 15:53:00,67.0,6.0,-100.00,North,1,10.0,20.0,9,0.00,,,0.00,998.000000,,2013-04-02 22:53:00,
2013-04-02 16:54:00,72.0,10.0,-100.00,SSW,212,4.0,21.0,9,0.00,,,0.00,793.000000,,2013-04-02 23:54:00,
2013-04-02 17:55:00,67.0,15.0,-100.00,SSW,206,12.0,20.0,13,0.00,,,0.00,563.000000,,2013-04-03 00:55:00,
2013-04-02 18:03:00,67.0,15.0,-100.00,SSW,206,12.0,20.0,13,0.00,,,0.00,563.000000,,2013-04-03 01:03:00,
2013-04-02 18:12:00,67.0,15.0,-100.00,SSW,206,12.0,20.0,13,0.00,,,0.00,563.000000,,2013-04-03 01:12:00,
2013-04-02 18:21:00,67.0,15.0,-100.00,SSW,206,12.0,20.0,13,0.00,,,0.00,563.000000,,2013-04-03 01:21:00,
2013-04-02 18:53:00,62.0,26.0,-100.00,SSW,207,13.0,20.0,25,0.00,,,0.00,242.000000,,2013-04-03 01:53:00,
2013-04-02 19:03:00,62.0,26.0,-100.00,SSW,207,13.0,20.0,25,0.00,,,0.00,242.000000,,2013-04-03 02:03:00,
2013-04-02 19:12:00,62.0,26.0,-100.00,SSW,207,13.0,20.0,25,0.00,,,0.00,242.000000,,2013-04-03 02:12:00,
2013-04-02 19:22:00,62.0,26.0,-100.00,SSW,207,13.0,20.0,25,0.00,,,0.00,242.000000,,2013-04-03 02:22:00,
2013-04-02 19:53:00,59.0,30.0,-100.00,SSW,210,15.0,20.0,33,0.00,,,0.00,20.000000,,2013-04-03 02:53:00,
2013-04-02 20:13:00,59.0,30.0,-100.00,SSW,210,15.0,20.0,33,0.00,,,0.00,20.000000,,2013-04-03 03:13:00,
2013-04-02 20:22:00,59.0,30.0,-100.00,SSW,210,15.0,20.0,33,0.00,,,0.00,20.000000,,2013-04-03 03:22:00,
2013-04-02 21:03:00,56.0,34.0,-100.00,SSW,206,11.0,19.0,43,0.00,,,0.00,0.000000,,2013-04-03 04:03:00,
2013-04-02 21:12:00,56.0,34.0,-100.00,SSW,206,11.0,19.0,43,0.00,,,0.00,0.000000,,2013-04-03 04:12:00,
2013-04-02 21:23:00,56.0,34.0,-100.00,SSW,206,11.0,19.0,43,0.00,,,0.00,0.000000,,2013-04-03 04:23:00,
2013-04-02 21:53:00,59.0,29.0,-100.00,SW,221,11.0,15.0,32,0.00,,,0.00,0.000000,,2013-04-03 04:53:00,
2013-04-02 22:02:00,59.0,29.0,-100.00,SW,221,11.0,15.0,32,0.00,,,0.00,0.000000,,2013-04-03 05:02:00,
2013-04-02 22:12:00,59.0,29.0,-100.00,SW,221,11.0,15.0,32,0.00,,,0.00,0.000000,,2013-04-03 05:12:00,
2013-04-02 22:22:00,59.0,29.0,-100.00,SW,221,11.0,15.0,32,0.00,,,0.00,0.000000,,2013-04-03 05:22:00,
2013-04-02 22:52:00,60.0,27.0,-100.00,SW,219,10.0,13.0,28,0.00,,,0.00,0.000000,,2013-04-03 05:52:00,
2013-04-02 23:02:00,60.0,27.0,-100.00,SW,219,10.0,13.0,28,0.00,,,0.00,0.000000,,2013-04-03 06:02:00,
2013-04-02 23:12:00,60.0,27.0,-100.00,SW,219,10.0,13.0,28,0.00,,,0.00,0.000000,,2013-04-03 06:12:00,
2013-04-02 23:22:00,60.0,27.0,-100.00,SW,219,10.0,13.0,28,0.00,,,0.00,0.000000,,2013-04-03 06:22:00,
2013-04-02 23:52:00,58.0,24.0,-100.00,SW,215,9.0,11.0,27,0.00,,,0.00,0.000000,,2013-04-03 06:52:00,